CMA CGM G.washington — MAPY4 — position and weather

sailwx.info

Track history (hours):
 
Tides and Currents Weather Stations Pressure Air Temp Water Temp Dewpoint Dewpoint Depression Visibility Wind Speed Wind Dir Waves Ship Positions

CMA CGM G.washington

Last reported at 2018-Jul-22 12:31 UTC. Time now 2018-Jul-22 12:54 UTC.
Position N 34°14' W 120°06'.

Length 366 m; draft 13.7 m.

Type: Ship (hazmat cat A). MMSI: 232006508.

Date/timePositionNaut miles runAvg speedWind from/ knotsBaromVisibWave heightAir tempDewpointWater temp
2018-Jul-22 12:31N 34°14' W 120°06'816.1
2018-Jul-22 12:00N 34°16' W 120°15'816.4
2018-Jul-22 11:30N 34°18' W 120°25'816.6
2018-Jul-22 11:00N 34°20' W 120°34'816.1
2018-Jul-22 10:30N 34°22' W 120°44'816.0
2018-Jul-22 10:00N 34°24' W 120°53'816.0
2018-Jul-22 09:30N 34°24' W 121°03'815.8
2018-Jul-22 08:59N 34°27' W 121°12'816.5
2018-Jul-22 08:31N 34°30' W 121°21'816.4
2018-Jul-22 08:00N 34°34' W 121°30'816.4
2018-Jul-22 07:31N 34°37' W 121°39'816.7
2018-Jul-22 07:01N 34°40' W 121°48'816.6
2018-Jul-22 06:30N 34°44' W 121°58'816.6
2018-Jul-22 06:00N 34°47' W 122°07'916.6
2018-Jul-22 05:27N 34°51' W 122°17'716.7
2018-Jul-22 05:00N 34°54' W 122°25'1016.6
2018-Jul-22 04:23N 34°58' W 122°37'616.7
2018-Jul-22 04:00N 35°00' W 122°44'816.6
2018-Jul-22 03:30N 35°04' W 122°53'816.7
2018-Jul-22 03:00N 35°07' W 123°03'816.8
2018-Jul-22 02:30N 35°11' W 123°12'816.3
2018-Jul-22 02:00N 35°15' W 123°21'4 7.1
2018-Jul-22 01:28N 35°16' W 123°25'714.5
2018-Jul-22 00:57N 35°19' W 123°33'817.2
2018-Jul-22 00:30N 35°22' W 123°42'2517.5
2018-Jul-21 23:03N 35°33' W 124°10'5217.1
2018-Jul-21 20:01N 35°54' W 125°09'1618.0
2018-Jul-21 19:09N 36°00' W 125°26'818.8
2018-Jul-21 18:44N 36°04' W 125°35'618.7
2018-Jul-21 18:25N 36°06' W 125°42'819.1
2018-Jul-21 18:00N 36°09' W 125°51'2019.4
2018-Jul-21 16:58N 36°17' W 126°13'919.5
2018-Jul-21 16:30N 36°21' W 126°24'1019.1
2018-Jul-21 16:00N 36°25' W 126°35'  
Track history (hours):
 
Tides and Currents Weather Stations Pressure Air Temp Water Temp Dewpoint Dewpoint Depression Visibility Wind Speed Wind Dir Waves Ship Positions

CMA CGM G.washington

Last reported at 2018-Jul-22 12:31 UTC. Time now 2018-Jul-22 12:54 UTC.
Position N 34°14' W 120°06'.

Length 366 m; draft 13.7 m.

Type: Ship (hazmat cat A). MMSI: 232006508.

Date/timePositionNaut miles runAvg speedWind from/ knotsBaromVisibWave heightAir tempDewpointWater temp
2018-Jul-22 12:31N 34°14' W 120°06'816.1
2018-Jul-22 12:00N 34°16' W 120°15'816.4
2018-Jul-22 11:30N 34°18' W 120°25'816.6
2018-Jul-22 11:00N 34°20' W 120°34'816.1
2018-Jul-22 10:30N 34°22' W 120°44'816.0
2018-Jul-22 10:00N 34°24' W 120°53'816.0
2018-Jul-22 09:30N 34°24' W 121°03'815.8
2018-Jul-22 08:59N 34°27' W 121°12'816.5
2018-Jul-22 08:31N 34°30' W 121°21'816.4
2018-Jul-22 08:00N 34°34' W 121°30'816.4
2018-Jul-22 07:31N 34°37' W 121°39'816.7
2018-Jul-22 07:01N 34°40' W 121°48'816.6
2018-Jul-22 06:30N 34°44' W 121°58'816.6
2018-Jul-22 06:00N 34°47' W 122°07'916.6
2018-Jul-22 05:27N 34°51' W 122°17'716.7
2018-Jul-22 05:00N 34°54' W 122°25'1016.6
2018-Jul-22 04:23N 34°58' W 122°37'616.7
2018-Jul-22 04:00N 35°00' W 122°44'816.6
2018-Jul-22 03:30N 35°04' W 122°53'816.7
2018-Jul-22 03:00N 35°07' W 123°03'816.8
2018-Jul-22 02:30N 35°11' W 123°12'816.3
2018-Jul-22 02:00N 35°15' W 123°21'4 7.1
2018-Jul-22 01:28N 35°16' W 123°25'714.5
2018-Jul-22 00:57N 35°19' W 123°33'817.2
2018-Jul-22 00:30N 35°22' W 123°42'2517.5
2018-Jul-21 23:03N 35°33' W 124°10'5217.1
2018-Jul-21 20:01N 35°54' W 125°09'1618.0
2018-Jul-21 19:09N 36°00' W 125°26'818.8
2018-Jul-21 18:44N 36°04' W 125°35'618.7
2018-Jul-21 18:25N 36°06' W 125°42'819.1
2018-Jul-21 18:00N 36°09' W 125°51'2019.4
2018-Jul-21 16:58N 36°17' W 126°13'919.5
2018-Jul-21 16:30N 36°21' W 126°24'1019.1
2018-Jul-21 16:00N 36°25' W 126°35'  

Dump ship's entire track history